createdAt,value
2019-05-13T00:01:07.127Z,8.92
2019-05-13T00:03:36.151Z,8.90
2019-05-13T00:06:05.156Z,8.84
2019-05-13T00:08:34.027Z,8.89
2019-05-13T00:11:04.461Z,8.85
2019-05-13T00:13:33.795Z,8.80
2019-05-13T00:16:03.695Z,8.80
2019-05-13T00:18:33.953Z,8.84
2019-05-13T00:21:03.630Z,8.82
2019-05-13T00:23:33.964Z,8.87
2019-05-13T00:26:03.792Z,8.64
2019-05-13T00:28:34.300Z,8.62
2019-05-13T00:31:03.623Z,8.58
2019-05-13T00:33:33.843Z,8.52
2019-05-13T00:36:04.062Z,8.42
2019-05-13T00:38:33.818Z,8.50
2019-05-13T00:41:03.677Z,8.48
2019-05-13T00:43:33.941Z,8.41
2019-05-13T00:46:03.943Z,8.35
2019-05-13T00:48:33.666Z,8.32
2019-05-13T00:51:03.781Z,8.25
2019-05-13T00:53:35.234Z,8.28
2019-05-13T00:56:04.102Z,8.34
2019-05-13T00:58:33.689Z,8.46
2019-05-13T01:01:03.616Z,8.46
2019-05-13T01:03:33.938Z,8.53
2019-05-13T01:06:04.308Z,8.55
2019-05-13T01:08:33.856Z,8.56
2019-05-13T01:11:04.282Z,8.52
2019-05-13T01:13:34.260Z,8.52
2019-05-13T01:16:03.858Z,8.52
2019-05-13T01:18:34.008Z,8.57
2019-05-13T01:21:04.387Z,8.53
2019-05-13T01:23:34.387Z,8.50
2019-05-13T01:26:04.054Z,8.56
2019-05-13T01:28:34.428Z,8.45
2019-05-13T01:31:04.172Z,8.32
2019-05-13T01:33:35.047Z,8.19
2019-05-13T01:36:05.230Z,8.18
2019-05-13T01:38:34.691Z,8.23
2019-05-13T01:41:04.443Z,8.20
2019-05-13T01:43:33.808Z,8.20
2019-05-13T01:46:04.470Z,8.17
2019-05-13T01:48:33.490Z,7.97
2019-05-13T01:51:03.738Z,8.00
2019-05-13T01:53:33.601Z,8.02
2019-05-13T01:56:03.903Z,8.03
2019-05-13T01:58:34.007Z,7.87
2019-05-13T02:01:05.083Z,7.83
2019-05-13T02:03:33.807Z,7.86
2019-05-13T02:06:03.730Z,7.87
2019-05-13T02:08:33.837Z,7.76
2019-05-13T02:11:04.325Z,7.75
2019-05-13T02:13:34.379Z,7.73
2019-05-13T02:16:04.397Z,7.73
2019-05-13T02:18:34.226Z,7.65
2019-05-13T02:21:05.355Z,7.63
2019-05-13T02:23:34.509Z,7.52
2019-05-13T02:26:04.406Z,7.43
2019-05-13T02:28:33.565Z,7.43
2019-05-13T02:31:02.374Z,7.49
2019-05-13T02:33:34.006Z,7.54
2019-05-13T02:36:02.925Z,7.52
2019-05-13T02:38:35.424Z,7.40
2019-05-13T02:41:02.963Z,7.38
2019-05-13T02:43:33.520Z,7.47
2019-05-13T02:46:04.267Z,7.41
2019-05-13T02:48:33.438Z,7.49
2019-05-13T02:51:03.770Z,7.43
2019-05-13T02:53:33.598Z,7.34
2019-05-13T02:56:03.434Z,7.28
2019-05-13T02:58:33.608Z,7.26
2019-05-13T03:01:03.425Z,7.23
2019-05-13T03:03:33.134Z,7.21
2019-05-13T03:06:02.880Z,7.15
2019-05-13T03:08:43.723Z,7.14
2019-05-13T03:11:03.247Z,7.14
2019-05-13T03:13:33.008Z,7.12
2019-05-13T03:16:12.790Z,7.16
2019-05-13T03:18:43.233Z,7.19
2019-05-13T03:21:12.667Z,7.21
2019-05-13T03:23:44.230Z,7.14
2019-05-13T03:26:13.295Z,6.98
2019-05-13T03:28:43.570Z,7.08
2019-05-13T03:31:17.109Z,7.12
2019-05-13T03:33:46.487Z,7.27
2019-05-13T03:36:16.295Z,7.20
2019-05-13T03:39:01.827Z,7.16
2019-05-13T03:41:15.930Z,7.22
2019-05-13T03:43:45.062Z,7.23
2019-05-13T03:46:14.095Z,7.24
2019-05-13T03:48:43.247Z,7.30
2019-05-13T03:51:13.637Z,7.25
2019-05-13T03:53:43.518Z,7.28
2019-05-13T03:56:13.248Z,7.34
2019-05-13T03:58:43.653Z,7.40
2019-05-13T04:01:13.530Z,7.29
2019-05-13T04:03:44.186Z,7.37
2019-05-13T04:06:13.997Z,7.62
2019-05-13T04:08:43.820Z,7.62
2019-05-13T04:11:13.125Z,7.68
2019-05-13T04:13:43.261Z,7.73
2019-05-13T04:16:13.170Z,7.74
2019-05-13T04:18:42.809Z,7.63
2019-05-13T04:21:12.989Z,7.70
2019-05-13T04:23:42.935Z,7.68
2019-05-13T04:26:14.875Z,7.76
2019-05-13T04:28:44.046Z,7.80
2019-05-13T04:31:14.583Z,7.84
2019-05-13T04:33:43.508Z,7.84
2019-05-13T04:36:13.583Z,7.81
2019-05-13T04:38:44.326Z,7.81
2019-05-13T04:41:13.566Z,7.89
2019-05-13T04:43:43.904Z,7.91
2019-05-13T04:46:14.396Z,7.86
2019-05-13T04:48:44.508Z,7.84
2019-05-13T04:51:14.034Z,7.87
2019-05-13T04:53:43.499Z,7.93
2019-05-13T04:56:13.753Z,7.98
2019-05-13T04:58:43.607Z,8.13
2019-05-13T05:01:44.933Z,8.26
2019-05-13T05:04:24.296Z,8.35
2019-05-13T05:07:37.094Z,8.23
2019-05-13T05:10:38.283Z,8.23
2019-05-13T05:13:28.227Z,8.37
2019-05-13T05:16:32.735Z,8.48
2019-05-13T05:19:52.505Z,8.40
2019-05-13T05:22:48.360Z,8.32
2019-05-13T05:25:58.253Z,8.35
2019-05-13T05:28:45.736Z,8.54
2019-05-13T05:32:21.435Z,8.63
2019-05-13T05:35:26.435Z,8.71
2019-05-13T05:38:12.016Z,8.79
2019-05-13T05:40:42.478Z,8.97
2019-05-13T05:43:11.662Z,8.97
2019-05-13T05:45:41.663Z,9.00
2019-05-13T05:48:11.862Z,9.06
2019-05-13T05:50:42.924Z,9.05
2019-05-13T05:53:14.075Z,9.12
2019-05-13T05:55:43.366Z,9.22
2019-05-13T05:58:13.249Z,9.43
2019-05-13T06:00:43.099Z,9.63
2019-05-13T06:03:13.778Z,9.57
2019-05-13T06:05:42.723Z,9.51
2019-05-13T06:08:11.510Z,9.50
2019-05-13T06:10:47.308Z,9.47
2019-05-13T06:13:12.187Z,9.47
2019-05-13T06:15:42.095Z,9.50
2019-05-13T06:18:11.751Z,9.59
2019-05-13T06:20:41.823Z,9.71
2019-05-13T06:23:11.568Z,9.82
2019-05-13T06:25:42.784Z,9.77
2019-05-13T06:28:12.400Z,9.79
2019-05-13T06:30:41.683Z,9.94
2019-05-13T06:33:12.019Z,9.88
2019-05-13T06:35:44.651Z,9.98
2019-05-13T06:38:11.973Z,9.97
2019-05-13T06:40:42.423Z,9.94
2019-05-13T06:43:12.070Z,10.07
2019-05-13T06:45:42.087Z,9.95
2019-05-13T06:48:11.851Z,10.08
2019-05-13T06:50:41.578Z,10.11
2019-05-13T06:53:12.705Z,9.95
2019-05-13T06:55:41.931Z,10.06
2019-05-13T06:58:11.431Z,9.91
2019-05-13T07:00:42.725Z,10.07
2019-05-13T07:03:12.602Z,10.11
2019-05-13T07:05:42.487Z,10.18
2019-05-13T07:08:12.138Z,10.24
2019-05-13T07:10:41.532Z,10.29
2019-05-13T07:13:11.554Z,10.39
2019-05-13T07:15:41.657Z,10.53
2019-05-13T07:18:11.830Z,10.69
2019-05-13T07:20:42.726Z,10.48
2019-05-13T07:23:12.374Z,10.41
2019-05-13T07:25:42.179Z,10.39
2019-05-13T07:28:12.708Z,10.26
2019-05-13T07:30:42.982Z,10.33
2019-05-13T07:33:12.827Z,10.48
2019-05-13T07:35:44.367Z,10.61
2019-05-13T07:38:12.877Z,10.59
2019-05-13T07:40:41.975Z,10.76
2019-05-13T07:43:12.356Z,10.73
2019-05-13T07:45:42.456Z,10.89
2019-05-13T07:48:20.754Z,10.93
2019-05-13T07:50:53.386Z,11.04
2019-05-13T07:53:18.639Z,11.15
2019-05-13T07:55:44.019Z,11.19
2019-05-13T07:58:13.078Z,10.98
2019-05-13T08:00:42.133Z,10.75
2019-05-13T08:03:12.298Z,10.93
2019-05-13T08:05:42.062Z,11.06
2019-05-13T08:08:11.903Z,11.02
2019-05-13T08:10:41.617Z,11.05
2019-05-13T08:13:11.946Z,11.00
2019-05-13T08:15:42.064Z,10.94
2019-05-13T08:18:12.431Z,10.92
2019-05-13T08:20:41.959Z,10.98
2019-05-13T08:23:12.119Z,10.88
2019-05-13T08:25:42.424Z,11.18
2019-05-13T08:28:12.512Z,11.44
2019-05-13T08:30:42.549Z,11.47
2019-05-13T08:33:12.911Z,11.40
2019-05-13T08:35:47.037Z,11.45
2019-05-13T08:38:12.696Z,11.19
2019-05-13T08:40:42.399Z,11.27
2019-05-13T08:43:12.154Z,11.43
2019-05-13T08:45:42.154Z,11.37
2019-05-13T08:48:12.795Z,11.24
2019-05-13T08:50:42.357Z,11.52
2019-05-13T08:53:12.317Z,11.66
2019-05-13T08:55:42.756Z,11.68
2019-05-13T08:58:12.672Z,11.38
2019-05-13T09:00:48.511Z,11.37
2019-05-13T09:03:17.877Z,11.54
2019-05-13T09:05:46.974Z,11.57
2019-05-13T09:08:17.120Z,11.65
2019-05-13T09:10:45.913Z,11.74
2019-05-13T09:13:14.620Z,11.61
2019-05-13T09:15:43.399Z,11.57
2019-05-13T09:18:12.550Z,11.59
2019-05-13T09:20:41.705Z,11.70
2019-05-13T09:23:11.446Z,11.72
2019-05-13T09:25:41.576Z,11.91
2019-05-13T09:28:12.516Z,11.90
2019-05-13T09:30:42.377Z,11.86
2019-05-13T09:33:11.683Z,11.90
2019-05-13T09:35:42.222Z,12.05
2019-05-13T09:38:12.634Z,12.10
2019-05-13T09:40:42.403Z,12.18
2019-05-13T09:43:11.716Z,12.23
2019-05-13T09:45:41.769Z,12.20
2019-05-13T09:48:12.756Z,12.35
2019-05-13T09:50:42.557Z,12.41
2019-05-13T09:53:11.694Z,12.48
2019-05-13T09:55:41.495Z,12.54
2019-05-13T09:58:11.849Z,12.83
2019-05-13T10:03:13.460Z,12.69
2019-05-13T10:05:42.378Z,13.01
2019-05-13T10:08:12.515Z,13.04
2019-05-13T10:10:42.354Z,13.07
2019-05-13T10:13:13.127Z,13.12
2019-05-13T10:15:42.244Z,13.53
2019-05-13T10:18:12.645Z,14.04
2019-05-13T10:20:45.415Z,14.09
2019-05-13T10:23:14.565Z,14.35
2019-05-13T10:25:44.571Z,14.48
2019-05-13T10:28:13.646Z,13.91
2019-05-13T10:30:43.814Z,14.22
2019-05-13T10:33:13.288Z,14.51
2019-05-13T10:35:43.302Z,15.43
2019-05-13T10:38:13.440Z,15.74
2019-05-13T10:40:43.319Z,15.50
2019-05-13T10:43:28.800Z,15.77
2019-05-13T10:45:42.571Z,15.89
2019-05-13T10:48:13.490Z,15.72
2019-05-13T10:50:42.704Z,15.87
2019-05-13T10:53:12.417Z,16.26
2019-05-13T10:55:42.282Z,15.76
2019-05-13T10:58:12.280Z,14.87
2019-05-13T11:00:44.299Z,15.44
2019-05-13T11:03:12.919Z,15.83
2019-05-13T11:05:44.590Z,15.60
2019-05-13T11:08:12.082Z,16.04
2019-05-13T11:10:42.085Z,15.59
2019-05-13T11:13:11.941Z,15.74
2019-05-13T11:15:45.401Z,16.09
2019-05-13T11:18:19.001Z,16.37
2019-05-13T11:20:42.712Z,16.36
2019-05-13T11:23:12.412Z,16.17
2019-05-13T11:25:42.028Z,16.49
2019-05-13T11:28:12.302Z,16.44
2019-05-13T11:30:42.378Z,16.13
2019-05-13T11:33:11.676Z,16.39
2019-05-13T11:35:41.431Z,16.42
2019-05-13T11:38:12.226Z,16.73
2019-05-13T11:40:41.833Z,16.28
2019-05-13T11:43:12.264Z,16.29
2019-05-13T11:45:42.135Z,15.80
2019-05-13T11:48:13.209Z,16.12
2019-05-13T11:50:44.511Z,16.51
2019-05-13T11:53:31.627Z,16.62
2019-05-13T11:55:43.229Z,17.09
2019-05-13T11:58:13.883Z,15.96
2019-05-13T12:00:53.194Z,16.22
2019-05-13T12:03:23.198Z,16.29
2019-05-13T12:05:53.975Z,16.45
2019-05-13T12:08:23.234Z,15.77
2019-05-13T12:10:52.791Z,16.60
2019-05-13T12:13:23.804Z,16.24
2019-05-13T12:15:54.472Z,16.22
2019-05-13T12:18:23.588Z,16.43
2019-05-13T12:20:53.922Z,16.89
2019-05-13T12:23:23.396Z,16.62
2019-05-13T12:25:53.157Z,16.73
2019-05-13T12:28:22.026Z,16.52
2019-05-13T12:30:53.140Z,16.57
2019-05-13T12:33:22.659Z,16.57
2019-05-13T12:35:53.048Z,16.86
2019-05-13T12:38:22.842Z,16.67
2019-05-13T12:40:53.125Z,16.35
2019-05-13T12:43:24.039Z,16.26
2019-05-13T12:45:53.541Z,16.38
2019-05-13T12:48:23.066Z,16.03
2019-05-13T12:50:53.961Z,16.05
2019-05-13T12:53:22.949Z,16.59
2019-05-13T12:55:56.135Z,16.38
2019-05-13T12:58:23.674Z,16.42
2019-05-13T13:00:53.604Z,16.47
2019-05-13T13:03:23.575Z,16.71
2019-05-13T13:05:53.404Z,16.60
2019-05-13T13:08:38.473Z,16.45
2019-05-13T13:10:53.768Z,16.78
2019-05-13T13:13:52.628Z,16.65
2019-05-13T13:15:53.925Z,16.56
2019-05-13T13:18:22.992Z,16.76
2019-05-13T13:21:00.389Z,16.22
2019-05-13T13:23:23.488Z,16.25
2019-05-13T13:25:57.042Z,16.07
2019-05-13T13:28:24.350Z,16.20
2019-05-13T13:30:53.763Z,16.86
2019-05-13T13:33:22.813Z,16.88
2019-05-13T13:35:58.961Z,16.86
2019-05-13T13:38:25.198Z,16.26
2019-05-13T13:40:53.777Z,16.27
2019-05-13T13:43:24.905Z,16.30
2019-05-13T13:46:25.044Z,16.55
2019-05-13T13:48:26.000Z,16.57
2019-05-13T13:50:56.957Z,16.38
2019-05-13T13:53:26.336Z,16.79
2019-05-13T13:55:56.135Z,17.20
2019-05-13T13:58:25.971Z,17.23
2019-05-13T14:01:04.978Z,17.01
2019-05-13T14:03:25.588Z,16.90
2019-05-13T14:05:54.304Z,16.40
2019-05-13T14:06:25.463Z,12.68
2019-05-13T14:08:23.415Z,16.55
2019-05-13T14:10:52.409Z,16.55
2019-05-13T14:13:22.005Z,16.82
2019-05-13T14:15:52.660Z,16.73
2019-05-13T14:18:26.568Z,16.73
2019-05-13T14:20:53.039Z,16.75
2019-05-13T14:23:21.791Z,16.26
2019-05-13T14:25:52.961Z,16.84
2019-05-13T14:28:22.847Z,17.01
2019-05-13T14:30:51.671Z,17.30
2019-05-13T14:33:20.930Z,16.97
2019-05-13T14:35:49.570Z,16.91
2019-05-13T14:38:18.203Z,16.67
2019-05-13T14:40:47.492Z,16.95
2019-05-13T14:43:16.741Z,16.99
2019-05-13T14:45:45.696Z,17.11
2019-05-13T14:48:14.351Z,16.58
2019-05-13T14:50:43.058Z,16.54
2019-05-13T14:53:12.059Z,16.54
2019-05-13T14:55:41.919Z,16.47
2019-05-13T14:58:10.805Z,16.79
2019-05-13T15:00:42.167Z,16.65
2019-05-13T15:03:13.070Z,17.09
2019-05-13T15:05:43.001Z,16.87
2019-05-13T15:08:11.976Z,16.98
2019-05-13T15:10:41.961Z,17.13
2019-05-13T15:13:10.693Z,16.59
2019-05-13T15:15:42.041Z,16.57
2019-05-13T15:18:10.177Z,16.57
2019-05-13T15:20:41.119Z,16.15
2019-05-13T15:23:11.899Z,16.76
2019-05-13T15:25:42.049Z,16.31
2019-05-13T15:28:11.957Z,16.09
2019-05-13T15:30:42.073Z,16.56
2019-05-13T15:33:11.206Z,17.35
2019-05-13T15:35:41.981Z,17.28
2019-05-13T15:38:12.523Z,16.98
2019-05-13T15:40:41.602Z,16.70
2019-05-13T15:43:11.658Z,16.55
2019-05-13T15:45:42.446Z,16.49
2019-05-13T15:48:11.753Z,16.61
2019-05-13T15:50:42.259Z,16.22
2019-05-13T15:53:12.716Z,16.03
2019-05-13T15:55:41.604Z,16.36
2019-05-13T15:58:11.756Z,16.83
2019-05-13T16:00:41.925Z,16.17
2019-05-13T16:03:12.112Z,17.08
2019-05-13T16:05:42.323Z,16.69
2019-05-13T16:08:12.139Z,16.92
2019-05-13T16:10:41.979Z,16.60
2019-05-13T16:13:11.945Z,16.47
2019-05-13T16:15:41.728Z,15.98
2019-05-13T16:18:18.457Z,16.32
2019-05-13T16:20:47.367Z,16.40
2019-05-13T16:23:16.275Z,15.83
2019-05-13T16:25:44.975Z,16.33
2019-05-13T16:28:13.610Z,16.24
2019-05-13T16:30:42.308Z,16.61
2019-05-13T16:33:12.299Z,16.43
2019-05-13T16:35:42.474Z,15.70
2019-05-13T16:38:12.056Z,15.42
2019-05-13T16:40:42.340Z,15.93
2019-05-13T16:43:12.817Z,15.68
2019-05-13T16:45:42.474Z,15.06
2019-05-13T16:48:12.335Z,15.73
2019-05-13T16:50:41.948Z,15.66
2019-05-13T16:53:11.108Z,15.94
2019-05-13T16:55:41.675Z,16.02
2019-05-13T16:58:12.566Z,16.28
2019-05-13T17:00:42.497Z,15.30
2019-05-13T17:03:11.761Z,14.64
2019-05-13T17:05:41.997Z,13.73
2019-05-13T17:08:10.995Z,13.52
2019-05-13T17:10:41.887Z,13.77
2019-05-13T17:13:11.670Z,13.51
2019-05-13T17:15:41.673Z,13.35
2019-05-13T17:18:14.712Z,13.27
2019-05-13T17:20:41.462Z,13.87
2019-05-13T17:23:12.462Z,14.38
2019-05-13T17:25:42.314Z,14.59
2019-05-13T17:28:13.342Z,15.07
2019-05-13T17:30:42.138Z,14.81
2019-05-13T17:33:11.784Z,14.50
2019-05-13T17:35:41.900Z,14.06
2019-05-13T17:38:11.334Z,14.04
2019-05-13T17:40:42.023Z,13.83
2019-05-13T17:43:11.955Z,13.59
2019-05-13T17:45:41.704Z,13.31
2019-05-13T17:48:25.513Z,12.94
2019-05-13T17:50:42.196Z,12.97
2019-05-13T17:53:11.500Z,12.98
2019-05-13T17:55:40.310Z,12.88
2019-05-13T17:58:11.488Z,12.69
2019-05-13T18:00:41.553Z,12.58
2019-05-13T18:03:11.358Z,12.45
2019-05-13T18:05:42.099Z,12.34
2019-05-13T18:08:11.251Z,12.29
2019-05-13T18:10:41.999Z,12.26
2019-05-13T18:13:12.690Z,11.88
2019-05-13T18:15:42.071Z,11.71
2019-05-13T18:18:11.966Z,11.71
2019-05-13T18:20:41.641Z,11.61
2019-05-13T18:23:12.131Z,11.52
2019-05-13T18:25:42.189Z,11.59
2019-05-13T18:28:27.049Z,11.59
2019-05-13T18:30:41.496Z,11.58
2019-05-13T18:33:11.809Z,11.59
2019-05-13T18:35:41.869Z,11.69
2019-05-13T18:38:11.996Z,11.75
2019-05-13T18:40:42.003Z,11.87
2019-05-13T18:43:11.295Z,11.95
2019-05-13T18:45:41.913Z,12.16
2019-05-13T18:48:12.262Z,11.85
2019-05-13T18:50:41.902Z,11.41
2019-05-13T18:53:11.503Z,11.39
2019-05-13T18:55:41.576Z,11.11
2019-05-13T18:58:11.662Z,10.85
2019-05-13T19:00:41.607Z,10.84
2019-05-13T19:03:12.497Z,10.71
2019-05-13T19:05:42.189Z,10.74
2019-05-13T19:08:12.347Z,10.80
2019-05-13T19:10:42.049Z,10.52
2019-05-13T19:13:12.444Z,10.48
2019-05-13T19:15:41.574Z,10.44
2019-05-13T19:18:12.274Z,10.40
2019-05-13T19:20:41.902Z,10.52
2019-05-13T19:23:11.799Z,10.43
2019-05-13T19:25:42.700Z,10.30
2019-05-13T19:28:12.050Z,10.17
2019-05-13T19:30:41.738Z,10.11
2019-05-13T19:33:12.170Z,10.09
2019-05-13T19:35:42.637Z,10.03
2019-05-13T19:38:12.099Z,10.10
2019-05-13T19:40:41.951Z,10.18
2019-05-13T19:43:11.624Z,10.20
2019-05-13T19:45:41.607Z,10.13
2019-05-13T19:48:11.789Z,10.09
2019-05-13T19:50:41.700Z,10.01
2019-05-13T19:53:12.122Z,9.93
2019-05-13T19:55:41.603Z,9.88
2019-05-13T19:58:12.484Z,9.88
2019-05-13T20:00:42.442Z,9.84
2019-05-13T20:03:11.902Z,9.86
2019-05-13T20:05:41.639Z,9.97
2019-05-13T20:08:10.700Z,9.93
2019-05-13T20:10:42.163Z,10.04
2019-05-13T20:13:11.260Z,10.15
2019-05-13T20:15:41.343Z,10.08
2019-05-13T20:18:12.159Z,9.98
2019-05-13T20:20:41.223Z,10.00
2019-05-13T20:23:12.054Z,9.98
2019-05-13T20:25:41.726Z,9.84
2019-05-13T20:28:11.595Z,9.73
2019-05-13T20:30:41.832Z,9.49
2019-05-13T20:33:11.953Z,9.28
2019-05-13T20:35:42.101Z,9.16
2019-05-13T20:38:11.585Z,8.97
2019-05-13T20:40:41.454Z,8.70
2019-05-13T20:43:11.855Z,8.54
2019-05-13T20:45:42.062Z,8.52
2019-05-13T20:48:11.993Z,8.67
2019-05-13T20:50:41.322Z,8.67
2019-05-13T20:53:11.570Z,8.79
2019-05-13T20:55:41.669Z,8.80
2019-05-13T20:58:12.721Z,8.77
2019-05-13T21:00:42.298Z,8.72
2019-05-13T21:03:12.246Z,8.74
2019-05-13T21:05:41.592Z,8.64
2019-05-13T21:08:10.851Z,8.45
2019-05-13T21:10:41.983Z,8.04
2019-05-13T21:13:12.229Z,7.87
2019-05-13T21:15:42.401Z,7.82
2019-05-13T21:18:11.832Z,7.88
2019-05-13T21:20:41.227Z,7.98
2019-05-13T21:23:11.328Z,8.15
2019-05-13T21:25:41.861Z,8.26
2019-05-13T21:28:11.469Z,8.27
2019-05-13T21:30:41.993Z,8.27
2019-05-13T21:33:11.511Z,8.26
2019-05-13T21:35:41.900Z,8.17
2019-05-13T21:38:11.446Z,8.18
2019-05-13T21:40:41.564Z,7.75
2019-05-13T21:43:10.466Z,7.75
2019-05-13T21:45:41.066Z,7.67
2019-05-13T21:48:11.034Z,7.55
2019-05-13T21:50:41.431Z,7.66
2019-05-13T21:53:12.264Z,7.66
2019-05-13T21:55:41.397Z,7.81
2019-05-13T21:58:11.325Z,7.84
2019-05-13T22:00:43.480Z,7.83
2019-05-13T22:03:12.114Z,7.64
2019-05-13T22:05:40.825Z,7.54
2019-05-13T22:08:12.018Z,7.54
2019-05-13T22:10:41.578Z,7.65
2019-05-13T22:13:11.902Z,7.75
2019-05-13T22:15:41.628Z,7.86
2019-05-13T22:18:11.384Z,7.74
2019-05-13T22:20:50.040Z,7.72
2019-05-13T22:23:11.982Z,7.78
2019-05-13T22:25:43.418Z,7.79
2019-05-13T22:28:11.913Z,7.73
2019-05-13T22:30:41.225Z,7.56
2019-05-13T22:33:12.275Z,7.44
2019-05-13T22:35:42.000Z,7.52
2019-05-13T22:38:12.258Z,7.60
2019-05-13T22:40:41.953Z,7.76
2019-05-13T22:43:12.186Z,7.95
2019-05-13T22:45:41.919Z,8.07
2019-05-13T22:48:14.623Z,8.19
2019-05-13T22:50:42.240Z,8.26
2019-05-13T22:53:12.033Z,8.34
2019-05-13T22:55:41.796Z,8.32
2019-05-13T22:58:11.405Z,8.35
2019-05-13T23:00:42.340Z,8.35
2019-05-13T23:03:11.034Z,8.43
2019-05-13T23:05:41.577Z,8.49
2019-05-13T23:08:11.347Z,8.45
2019-05-13T23:10:42.079Z,8.41
2019-05-13T23:13:11.002Z,8.39
2019-05-13T23:15:39.659Z,8.42
2019-05-13T23:18:08.575Z,8.44
2019-05-13T23:20:37.479Z,8.40
2019-05-13T23:23:06.436Z,8.48
2019-05-13T23:25:35.439Z,8.50
2019-05-13T23:28:04.165Z,8.50
2019-05-13T23:30:33.137Z,8.49
2019-05-13T23:33:02.298Z,8.43
2019-05-13T23:35:32.256Z,8.41
2019-05-13T23:38:01.689Z,8.45
2019-05-13T23:40:31.583Z,8.43
2019-05-13T23:43:02.094Z,8.41
2019-05-13T23:45:31.366Z,8.34
2019-05-13T23:48:01.574Z,8.34
2019-05-13T23:50:32.142Z,8.32
2019-05-13T23:53:01.137Z,8.26
2019-05-13T23:55:32.148Z,8.21
2019-05-13T23:58:01.728Z,8.17
